Time;durP1;ratioP1;P1;durP2;ratioP2;P2;SDS_P1;SDS_P2;PMS_P1;PMS_P2;Temp;Humidity;BMP_temperature;BMP_pressure;BME280_temperature;BME280_humidity;BME280_pressure;Samples;Min_cycle;Max_cycle;Signal;HPM_P1;HPM_P2
2021/01/08 00:00:26;;;;;;;27.33;19.40;;;-1.40;99.90;;;;;;5071363;28;20248;-78
2021/01/08 00:02:54;;;;;;;28.00;20.00;;;-1.40;99.90;;;;;;5070862;28;20793;-79
2021/01/08 00:05:21;;;;;;;27.13;18.43;;;-1.40;99.90;;;;;;5071247;28;20232;-78
2021/01/08 00:07:47;;;;;;;29.67;20.50;;;-1.40;99.90;;;;;;5070833;28;20220;-77
2021/01/08 00:10:14;;;;;;;25.67;18.97;;;-1.30;99.90;;;;;;5071446;28;20236;-77
2021/01/08 00:12:40;;;;;;;33.00;20.50;;;-1.40;99.90;;;;;;5070265;28;20242;-76
2021/01/08 00:15:07;;;;;;;29.00;21.43;;;-1.50;99.90;;;;;;5071349;28;20205;-76
2021/01/08 00:17:34;;;;;;;27.63;20.20;;;-1.50;99.90;;;;;;5071036;28;20222;-76
2021/01/08 00:20:01;;;;;;;29.80;18.90;;;-1.40;99.90;;;;;;5070665;28;20266;-76
2021/01/08 00:22:28;;;;;;;25.93;17.27;;;-1.40;99.90;;;;;;5070646;28;20294;-77
2021/01/08 00:24:55;;;;;;;25.10;15.80;;;-1.20;99.90;;;;;;5070971;28;20210;-77
2021/01/08 00:27:22;;;;;;;27.47;18.57;;;-1.30;99.90;;;;;;5071007;28;20697;-75
2021/01/08 00:29:48;;;;;;;28.60;18.80;;;-1.20;99.90;;;;;;5070429;28;20212;-77
2021/01/08 00:32:15;;;;;;;24.07;16.60;;;-1.10;99.90;;;;;;5070841;28;20259;-75
2021/01/08 00:34:41;;;;;;;27.07;17.63;;;-1.20;99.90;;;;;;5070069;28;20198;-76
2021/01/08 00:37:09;;;;;;;28.13;17.77;;;-1.20;99.90;;;;;;5070914;28;20221;-77
2021/01/08 00:39:36;;;;;;;30.07;19.20;;;-1.40;99.90;;;;;;5071062;28;20210;-79
2021/01/08 00:42:04;;;;;;;32.53;18.67;;;-1.40;99.90;;;;;;5070823;28;20237;-78
2021/01/08 00:44:30;;;;;;;22.57;17.07;;;-1.60;99.90;;;;;;5070671;28;20213;-79
2021/01/08 00:46:57;;;;;;;28.17;17.30;;;-1.60;99.90;;;;;;5070268;28;20650;-77
2021/01/08 00:49:24;;;;;;;29.20;18.50;;;-1.60;99.90;;;;;;5070569;28;20241;-77
2021/01/08 00:51:50;;;;;;;28.90;18.97;;;-1.50;99.90;;;;;;5069850;28;20220;-77
2021/01/08 00:54:18;;;;;;;26.50;19.43;;;-1.50;99.90;;;;;;5070812;28;20204;-77
2021/01/08 00:56:46;;;;;;;27.67;16.30;;;-1.50;99.90;;;;;;5070284;28;20216;-76
2021/01/08 00:59:12;;;;;;;25.23;15.27;;;-1.50;99.90;;;;;;5070360;28;20214;-77
2021/01/08 01:01:39;;;;;;;25.43;16.53;;;-1.50;99.90;;;;;;5070350;28;20266;-77
2021/01/08 01:04:05;;;;;;;26.40;16.93;;;-1.40;99.90;;;;;;5070878;28;20202;-77
2021/01/08 01:06:34;;;;;;;21.87;15.40;;;-1.40;99.90;;;;;;5070575;28;20342;-78
2021/01/08 01:09:02;;;;;;;31.17;19.40;;;-1.50;99.90;;;;;;5069727;28;20637;-77
2021/01/08 01:11:30;;;;;;;25.37;18.43;;;-1.50;99.90;;;;;;5070593;28;20213;-77
2021/01/08 01:13:58;;;;;;;26.97;18.83;;;-1.60;99.90;;;;;;5069841;28;20210;-77
2021/01/08 01:16:26;;;;;;;28.60;19.33;;;-1.60;99.90;;;;;;5070262;28;20275;-78
2021/01/08 01:18:54;;;;;;;22.97;17.40;;;-1.70;99.90;;;;;;5070100;28;20237;-77
2021/01/08 01:21:21;;;;;;;27.30;18.50;;;-1.70;99.90;;;;;;5069854;28;20642;-78
2021/01/08 01:23:48;;;;;;;27.47;19.27;;;-1.80;99.90;;;;;;5071056;28;20673;-78
2021/01/08 01:26:14;;;;;;;27.30;19.60;;;-1.80;99.90;;;;;;5074273;28;20206;-78
2021/01/08 01:28:42;;;;;;;30.80;21.07;;;-1.80;99.90;;;;;;5073909;28;20556;-76
2021/01/08 01:31:09;;;;;;;29.47;19.57;;;-1.80;99.90;;;;;;5074323;28;20216;-76
2021/01/08 01:33:36;;;;;;;26.73;20.60;;;-1.80;99.90;;;;;;5074266;28;20217;-77
2021/01/08 01:36:05;;;;;;;32.53;19.17;;;-1.90;99.90;;;;;;5073095;28;20705;-77
2021/01/08 01:38:32;;;;;;;32.60;21.27;;;-1.90;99.90;;;;;;5068294;28;20250;-78
2021/01/08 01:40:58;;;;;;;29.37;18.53;;;-1.90;99.90;;;;;;5073375;28;20615;-77
2021/01/08 01:43:24;;;;;;;28.80;17.53;;;-2.00;99.90;;;;;;5074155;28;20212;-77
2021/01/08 01:45:52;;;;;;;31.10;18.73;;;-1.90;99.90;;;;;;5073377;28;20210;-78
2021/01/08 01:48:19;;;;;;;30.27;20.40;;;-1.90;99.90;;;;;;5074086;28;20237;-78
2021/01/08 01:50:47;;;;;;;25.17;17.93;;;-2.00;99.90;;;;;;5073213;28;20338;-77
2021/01/08 01:53:13;;;;;;;32.27;21.23;;;-2.00;99.90;;;;;;5073803;28;20213;-77
2021/01/08 01:55:41;;;;;;;25.73;16.37;;;-2.00;99.90;;;;;;5073366;28;20214;-75
2021/01/08 01:58:07;;;;;;;32.00;19.60;;;-2.00;99.90;;;;;;5074049;28;20257;-77
2021/01/08 02:00:33;;;;;;;23.60;16.67;;;-2.10;99.90;;;;;;5074146;28;20284;-77
2021/01/08 02:03:07;;;;;;;25.93;18.07;;;-2.00;99.90;;;;;;5073261;28;20232;-76
2021/01/08 02:05:34;;;;;;;29.40;18.23;;;-2.10;99.90;;;;;;5074014;28;20664;-79
2021/01/08 02:08:04;;;;;;;29.43;20.33;;;-2.10;99.90;;;;;;5073178;28;20206;-77
2021/01/08 02:10:38;;;;;;;32.47;20.47;;;-2.10;99.90;;;;;;5073334;28;20209;-78
2021/01/08 02:13:05;;;;;;;28.87;19.97;;;-2.10;99.90;;;;;;5073355;28;20210;-76
2021/01/08 02:15:33;;;;;;;34.10;20.93;;;-2.10;99.90;;;;;;5073457;28;20212;-76
2021/01/08 02:18:03;;;;;;;24.27;18.03;;;-2.10;99.90;;;;;;5071389;28;20576;-76
2021/01/08 02:20:30;;;;;;;26.17;18.87;;;-2.20;99.90;;;;;;5072144;28;20667;-75
2021/01/08 02:23:04;;;;;;;33.63;21.00;;;-2.20;99.90;;;;;;5071352;28;20264;-75
2021/01/08 02:25:32;;;;;;;34.43;20.17;;;-2.20;99.90;;;;;;5072034;28;20703;-75
2021/01/08 02:28:24;;;;;;;29.97;20.03;;;-2.20;99.90;;;;;;5071501;28;20235;-75
2021/01/08 02:30:52;;;;;;;31.67;18.67;;;-2.20;99.90;;;;;;5057027;28;20213;-75
2021/01/08 02:33:19;;;;;;;28.83;18.97;;;-2.10;99.90;;;;;;5071533;28;20213;-75
2021/01/08 02:35:49;;;;;;;32.97;20.40;;;-2.10;99.90;;;;;;5071352;28;20217;-75
2021/01/08 02:38:18;;;;;;;30.80;19.00;;;-2.20;99.90;;;;;;5071656;28;20214;-75
2021/01/08 02:40:46;;;;;;;29.23;17.43;;;-2.20;99.90;;;;;;5071597;28;20217;-75
2021/01/08 02:43:16;;;;;;;21.67;17.00;;;-2.30;99.90;;;;;;5071724;28;20232;-75
2021/01/08 02:45:42;;;;;;;25.87;17.63;;;-2.40;99.90;;;;;;5070392;28;20209;-75
2021/01/08 02:48:09;;;;;;;23.93;16.97;;;-2.40;99.90;;;;;;5071925;28;20209;-74
2021/01/08 02:50:36;;;;;;;26.27;17.30;;;-2.30;99.90;;;;;;5072122;28;20206;-75
2021/01/08 02:53:07;;;;;;;30.10;16.50;;;-2.30;99.90;;;;;;5071537;28;20204;-74
2021/01/08 02:55:35;;;;;;;25.17;17.77;;;-2.40;99.90;;;;;;5071885;28;20209;-76
2021/01/08 02:58:04;;;;;;;27.87;19.63;;;-2.30;99.90;;;;;;5071482;28;20205;-75
2021/01/08 03:00:32;;;;;;;31.30;20.17;;;-2.30;99.90;;;;;;5071321;28;20211;-76
2021/01/08 03:03:00;;;;;;;30.20;19.17;;;-2.30;99.90;;;;;;5071091;28;20738;-77
2021/01/08 03:05:27;;;;;;;25.57;16.10;;;-2.30;99.90;;;;;;5071510;28;20208;-77
2021/01/08 03:07:54;;;;;;;26.00;17.77;;;-2.40;99.90;;;;;;5071270;28;20212;-78
2021/01/08 03:10:22;;;;;;;27.07;17.10;;;-2.30;99.90;;;;;;5071399;28;20215;-78
2021/01/08 03:12:55;;;;;;;28.23;17.57;;;-2.40;99.90;;;;;;5071016;28;20212;-77
2021/01/08 03:15:23;;;;;;;26.08;19.52;;;-2.40;99.90;;;;;;5057948;28;632405;-71
2021/01/08 03:17:49;;;;;;;25.57;18.53;;;-2.40;99.90;;;;;;5071561;28;20619;-77
2021/01/08 03:20:16;;;;;;;26.10;18.10;;;-2.40;99.90;;;;;;5072197;28;20692;-75
2021/01/08 03:22:42;;;;;;;29.40;18.33;;;-2.50;99.90;;;;;;5071749;28;20227;-74
2021/01/08 03:25:10;;;;;;;27.80;17.40;;;-2.40;99.90;;;;;;5072205;28;20211;-74
2021/01/08 03:27:36;;;;;;;28.03;19.53;;;-2.50;99.90;;;;;;5072050;28;20212;-74
2021/01/08 03:30:05;;;;;;;27.60;16.87;;;-2.50;99.90;;;;;;5071718;28;20577;-74
2021/01/08 03:32:32;;;;;;;27.87;17.63;;;-2.50;99.90;;;;;;5072008;28;20206;-74
2021/01/08 03:34:59;;;;;;;30.63;19.20;;;-2.50;99.90;;;;;;5071787;28;20200;-74
2021/01/08 03:37:26;;;;;;;26.47;17.87;;;-2.50;99.90;;;;;;5072005;28;20209;-74
2021/01/08 03:39:52;;;;;;;29.63;18.17;;;-2.60;99.90;;;;;;5071193;28;20209;-74
2021/01/08 03:42:18;;;;;;;27.23;17.50;;;-2.60;99.90;;;;;;5071852;28;20268;-74
2021/01/08 03:44:45;;;;;;;24.27;18.13;;;-2.50;99.90;;;;;;5071250;28;20219;-75
2021/01/08 03:47:11;;;;;;;26.83;16.70;;;-2.60;99.90;;;;;;5071058;28;20205;-75
2021/01/08 03:49:39;;;;;;;24.03;16.50;;;-2.50;99.90;;;;;;5071961;28;20219;-74
2021/01/08 03:52:06;;;;;;;25.33;16.13;;;-2.60;99.90;;;;;;5071850;28;20624;-74
2021/01/08 03:54:33;;;;;;;30.80;18.90;;;-2.60;99.90;;;;;;5071668;28;20720;-75
2021/01/08 03:57:00;;;;;;;24.87;16.70;;;-2.60;99.90;;;;;;5070886;28;20678;-75
2021/01/08 03:59:27;;;;;;;28.10;19.03;;;-2.70;99.90;;;;;;5071575;28;20208;-75
2021/01/08 04:01:53;;;;;;;24.43;16.47;;;-2.70;99.90;;;;;;5071140;28;20238;-73
2021/01/08 04:04:21;;;;;;;27.23;17.93;;;-2.70;99.90;;;;;;5071500;28;20202;-75
2021/01/08 04:06:50;;;;;;;27.50;18.97;;;-2.60;99.90;;;;;;5071035;28;20290;-76
2021/01/08 04:09:16;;;;;;;26.93;18.93;;;-2.60;99.90;;;;;;5071071;28;20659;-76
2021/01/08 04:11:43;;;;;;;25.10;16.87;;;-2.60;99.90;;;;;;5071174;28;20636;-76
2021/01/08 04:14:09;;;;;;;23.47;15.23;;;-2.60;99.90;;;;;;5070647;28;20214;-76
2021/01/08 04:16:38;;;;;;;28.30;17.97;;;-2.50;99.90;;;;;;5071514;28;20247;-76
2021/01/08 04:19:05;;;;;;;24.17;16.73;;;-2.50;99.90;;;;;;5071267;28;20291;-75
2021/01/08 04:21:31;;;;;;;24.37;15.97;;;-2.60;99.90;;;;;;5071142;28;20208;-77
2021/01/08 04:23:58;;;;;;;24.67;17.33;;;-2.60;99.90;;;;;;5070478;28;20211;-76
2021/01/08 04:26:25;;;;;;;24.27;18.57;;;-2.60;99.90;;;;;;5070880;28;20581;-77
2021/01/08 04:28:51;;;;;;;27.73;17.20;;;-2.60;99.90;;;;;;5070681;28;20208;-77
2021/01/08 04:31:18;;;;;;;27.77;16.90;;;-2.70;99.90;;;;;;5070828;28;20204;-76
2021/01/08 04:33:44;;;;;;;24.73;17.13;;;-2.70;99.90;;;;;;5070581;28;20277;-75
2021/01/08 04:36:11;;;;;;;27.33;16.90;;;-2.70;99.90;;;;;;5070489;28;20668;-75
2021/01/08 04:38:38;;;;;;;23.47;16.83;;;-2.70;99.90;;;;;;5070999;28;20588;-76
2021/01/08 04:41:06;;;;;;;23.77;16.23;;;-2.70;99.90;;;;;;5070675;28;20206;-76
2021/01/08 04:43:33;;;;;;;24.87;18.07;;;-2.70;99.90;;;;;;5063888;28;20265;-76
2021/01/08 04:46:09;;;;;;;29.43;18.73;;;-2.70;99.90;;;;;;5063312;28;20213;-76
2021/01/08 04:48:36;;;;;;;28.77;17.60;;;-2.70;99.90;;;;;;5071007;28;20215;-75
2021/01/08 04:51:05;;;;;;;29.47;17.67;;;-2.80;99.90;;;;;;5070651;28;20256;-76
2021/01/08 04:53:32;;;;;;;30.60;20.10;;;-2.90;99.90;;;;;;5070652;28;20219;-75
2021/01/08 04:56:02;;;;;;;25.80;16.70;;;-2.80;99.90;;;;;;5070367;28;20215;-76
2021/01/08 04:58:32;;;;;;;26.93;17.60;;;-2.80;99.90;;;;;;5070514;28;20203;-75
2021/01/08 05:01:00;;;;;;;25.20;17.53;;;-2.90;99.90;;;;;;5070105;28;20666;-74
2021/01/08 05:03:27;;;;;;;27.70;15.60;;;-2.90;99.90;;;;;;5070318;28;20307;-75
2021/01/08 05:05:53;;;;;;;24.60;16.97;;;-3.00;99.90;;;;;;5070164;28;20251;-74
2021/01/08 05:08:20;;;;;;;26.87;19.47;;;-3.00;99.90;;;;;;5070755;28;20268;-75
2021/01/08 05:10:46;;;;;;;29.47;18.40;;;-3.00;99.90;;;;;;5069992;28;20585;-75
2021/01/08 05:13:13;;;;;;;27.20;19.30;;;-3.00;99.90;;;;;;5070630;28;20204;-75
2021/01/08 05:15:41;;;;;;;28.50;20.20;;;-3.00;99.90;;;;;;5070293;28;20211;-75
2021/01/08 05:18:07;;;;;;;27.80;18.60;;;-3.00;99.90;;;;;;5070691;28;20211;-75
2021/01/08 05:20:34;;;;;;;29.03;19.93;;;-3.00;99.90;;;;;;5070824;28;20202;-78
2021/01/08 05:23:01;;;;;;;25.43;17.17;;;-3.00;99.90;;;;;;5069652;28;20238;-78
2021/01/08 05:25:28;;;;;;;27.10;18.67;;;-3.00;99.90;;;;;;5070473;28;21089;-78
2021/01/08 05:27:55;;;;;;;28.50;19.30;;;-3.20;99.90;;;;;;5069907;28;20204;-76
2021/01/08 05:30:23;;;;;;;29.03;19.73;;;-3.00;99.90;;;;;;5070467;28;20235;-73
2021/01/08 05:32:58;;;;;;;32.03;20.40;;;-3.00;99.90;;;;;;5069881;28;20313;-77
2021/01/08 05:35:25;;;;;;;32.20;21.00;;;-3.00;99.90;;;;;;5070501;28;20206;-77
2021/01/08 05:37:54;;;;;;;30.17;18.90;;;-3.00;99.90;;;;;;5069784;28;20215;-77
2021/01/08 05:40:27;;;;;;;26.87;17.93;;;-3.00;99.90;;;;;;5070087;28;20599;-77
2021/01/08 05:42:58;;;;;;;25.17;19.13;;;-3.00;99.90;;;;;;5069573;28;20731;-78
2021/01/08 05:45:25;;;;;;;31.23;19.90;;;-2.90;99.90;;;;;;5070379;28;20226;-76
2021/01/08 05:47:53;;;;;;;35.70;25.77;;;-3.00;99.90;;;;;;5070064;28;20261;-74
2021/01/08 05:50:22;;;;;;;38.77;25.13;;;-3.00;99.90;;;;;;5069822;28;20226;-75
2021/01/08 05:52:53;;;;;;;34.33;21.43;;;-3.00;99.90;;;;;;5069577;28;20685;-75
2021/01/08 05:55:20;;;;;;;30.73;19.60;;;-3.00;99.90;;;;;;5069881;28;20203;-75
2021/01/08 05:57:50;;;;;;;34.77;19.97;;;-3.00;99.90;;;;;;5068801;28;20267;-75
2021/01/08 06:00:17;;;;;;;25.00;18.33;;;-3.00;99.90;;;;;;5069397;28;20205;-75
2021/01/08 06:02:44;;;;;;;24.80;18.17;;;-3.00;99.90;;;;;;5067737;28;20231;-74
2021/01/08 06:05:12;;;;;;;31.33;22.07;;;-3.00;99.90;;;;;;5068737;28;20286;-75
2021/01/08 06:07:47;;;;;;;26.87;20.10;;;-2.90;99.90;;;;;;5069791;28;20212;-75
2021/01/08 06:10:19;;;;;;;28.97;20.53;;;-3.10;99.90;;;;;;5071378;28;20217;-75
2021/01/08 06:12:47;;;;;;;32.70;21.00;;;-3.20;99.90;;;;;;5073130;28;20207;-75
2021/01/08 06:15:16;;;;;;;30.27;22.53;;;-3.10;99.90;;;;;;5073607;28;20210;-74
2021/01/08 06:17:46;;;;;;;28.70;22.27;;;-3.00;99.90;;;;;;5072645;28;20206;-75
2021/01/08 06:20:14;;;;;;;29.03;20.50;;;-3.00;99.90;;;;;;5073537;28;20661;-74
2021/01/08 06:22:42;;;;;;;30.03;20.73;;;-3.00;99.90;;;;;;5072384;28;20238;-75
2021/01/08 06:25:10;;;;;;;25.90;18.73;;;-3.10;99.90;;;;;;5072247;28;20225;-76
2021/01/08 06:27:37;;;;;;;31.27;19.73;;;-3.20;99.90;;;;;;5073506;28;20214;-75
2021/01/08 06:30:07;;;;;;;26.40;18.50;;;-3.10;99.90;;;;;;5073028;28;20218;-74
2021/01/08 06:32:35;;;;;;;31.10;19.93;;;-3.10;99.90;;;;;;5073441;28;20634;-75
2021/01/08 06:35:05;;;;;;;28.07;19.57;;;-3.10;99.90;;;;;;5072805;28;20203;-75
2021/01/08 06:37:38;;;;;;;30.10;21.13;;;-3.10;99.90;;;;;;5073262;28;20223;-74
2021/01/08 06:40:08;;;;;;;32.83;22.80;;;-3.00;99.90;;;;;;5073380;28;20206;-73
2021/01/08 06:42:43;;;;;;;28.47;22.20;;;-3.10;99.90;;;;;;5073381;28;20249;-76
2021/01/08 06:45:13;;;;;;;30.03;20.47;;;-3.10;99.90;;;;;;5072755;28;20579;-75
2021/01/08 06:47:44;;;;;;;33.73;22.93;;;-3.10;99.90;;;;;;5072528;28;20218;-74
2021/01/08 06:50:16;;;;;;;37.03;22.43;;;-3.10;99.90;;;;;;5072841;28;20207;-74
2021/01/08 06:52:45;;;;;;;35.00;22.30;;;-3.20;99.90;;;;;;5072082;28;20208;-74
2021/01/08 06:55:16;;;;;;;32.43;22.07;;;-3.20;99.90;;;;;;5072708;28;20211;-74
2021/01/08 06:57:53;;;;;;;28.77;22.63;;;-3.30;99.90;;;;;;5072317;28;20696;-74
2021/01/08 07:00:27;;;;;;;41.07;27.17;;;-3.30;99.90;;;;;;5072309;28;20671;-76
2021/01/08 07:02:57;;;;;;;45.80;30.83;;;-3.30;99.90;;;;;;5072290;28;20244;-75
2021/01/08 07:05:25;;;;;;;39.07;27.07;;;-3.20;99.90;;;;;;5072305;28;20276;-75
2021/01/08 07:07:54;;;;;;;37.57;23.53;;;-3.30;99.90;;;;;;5072024;28;20218;-75
2021/01/08 07:10:21;;;;;;;28.90;21.20;;;-3.20;99.90;;;;;;5072462;28;20248;-76
2021/01/08 07:12:52;;;;;;;32.23;22.53;;;-3.20;99.90;;;;;;5072239;28;20214;-75
2021/01/08 07:15:20;;;;;;;28.90;20.17;;;-3.30;99.90;;;;;;5072468;28;20278;-76
2021/01/08 07:17:52;;;;;;;33.07;21.17;;;-3.40;99.90;;;;;;5071775;28;20214;-76
2021/01/08 07:20:21;;;;;;;33.23;21.20;;;-3.40;99.90;;;;;;5072075;28;20210;-75
2021/01/08 07:22:52;;;;;;;29.80;21.80;;;-3.40;99.90;;;;;;5070347;28;20228;-75
2021/01/08 07:25:24;;;;;;;31.53;22.30;;;-3.30;99.90;;;;;;5071950;28;20214;-75
2021/01/08 07:27:52;;;;;;;31.90;21.87;;;-3.30;99.90;;;;;;5071642;28;20290;-74
2021/01/08 07:30:20;;;;;;;34.10;22.47;;;-3.30;99.90;;;;;;5071853;28;20206;-74
2021/01/08 07:32:48;;;;;;;33.13;23.57;;;-3.30;99.90;;;;;;5071502;28;20217;-74
2021/01/08 07:35:19;;;;;;;34.90;23.23;;;-3.30;99.90;;;;;;5071934;28;20210;-74
2021/01/08 07:38:04;;;;;;;39.40;24.23;;;-3.30;99.90;;;;;;5071248;28;20217;-75
2021/01/08 07:40:33;;;;;;;32.33;20.53;;;-3.30;99.90;;;;;;5071698;28;20206;-75
2021/01/08 07:43:04;;;;;;;35.97;23.13;;;-3.30;99.90;;;;;;5071262;28;20276;-74
2021/01/08 07:45:48;;;;;;;33.83;22.03;;;-3.20;99.90;;;;;;5071567;28;20213;-75
2021/01/08 07:48:19;;;;;;;34.70;22.10;;;-3.20;99.90;;;;;;5071779;28;20213;-75
2021/01/08 07:50:53;;;;;;;33.53;21.73;;;-3.10;99.90;;;;;;5071076;28;20331;-75
2021/01/08 07:53:45;;;;;;;33.93;22.13;;;-2.60;99.90;;;;;;5071437;28;20684;-79
2021/01/08 07:56:13;;;;;;;30.80;20.50;;;-2.40;99.90;;;;;;5060588;28;20323;-77
2021/01/08 07:58:40;;;;;;;30.13;22.07;;;-2.40;99.90;;;;;;5070756;28;20651;-73
2021/01/08 08:01:08;;;;;;;32.60;20.27;;;-2.30;99.90;;;;;;5070551;28;20588;-77
2021/01/08 08:03:35;;;;;;;32.73;21.40;;;-2.30;99.90;;;;;;5070878;28;20321;-78
2021/01/08 08:06:02;;;;;;;33.23;21.67;;;-2.30;99.90;;;;;;5061873;28;20289;-78
2021/01/08 08:08:29;;;;;;;33.73;22.53;;;-2.30;99.90;;;;;;5063260;28;20218;-77
2021/01/08 08:11:08;;;;;;;35.33;22.97;;;-2.10;99.90;;;;;;5069794;28;20216;-78
2021/01/08 08:13:36;;;;;;;36.17;20.43;;;-2.10;99.90;;;;;;5071295;28;20217;-78
2021/01/08 08:16:04;;;;;;;32.60;20.93;;;-2.20;99.90;;;;;;5069294;28;20235;-78
2021/01/08 08:18:30;;;;;;;42.40;22.50;;;-2.10;99.90;;;;;;5069876;28;20600;-78
2021/01/08 08:21:09;;;;;;;30.30;23.17;;;-2.10;99.90;;;;;;5069428;28;20733;-76
2021/01/08 08:23:37;;;;;;;35.30;22.83;;;-1.90;99.90;;;;;;5070769;28;20252;-78
2021/01/08 08:26:04;;;;;;;31.70;21.47;;;-1.80;99.90;;;;;;5070505;28;20943;-78
2021/01/08 08:28:31;;;;;;;30.63;20.83;;;-1.60;99.90;;;;;;5070847;28;20208;-78
2021/01/08 08:30:59;;;;;;;35.63;21.10;;;-1.40;99.90;;;;;;5070013;28;20212;-76
2021/01/08 08:33:25;;;;;;;31.73;20.70;;;-0.80;99.90;;;;;;5069932;28;20209;-79
2021/01/08 08:35:52;;;;;;;30.97;23.33;;;-0.40;99.90;;;;;;5070173;28;20271;-80
2021/01/08 08:38:19;;;;;;;33.23;21.67;;;-0.60;99.90;;;;;;5070017;28;20209;-77
2021/01/08 08:40:45;;;;;;;29.23;20.03;;;-0.60;99.90;;;;;;5070321;28;20259;-78
2021/01/08 08:43:21;;;;;;;30.53;20.73;;;-0.60;99.90;;;;;;5070393;28;20225;-76
2021/01/08 08:45:48;;;;;;;30.93;18.90;;;0.20;99.90;;;;;;5070282;28;20213;-78
2021/01/08 08:48:19;;;;;;;28.93;18.90;;;0.80;99.90;;;;;;5070415;28;20584;-80
2021/01/08 08:50:47;;;;;;;30.13;21.10;;;2.00;99.90;;;;;;5070538;28;20682;-79
2021/01/08 08:53:14;;;;;;;34.50;21.53;;;1.90;99.90;;;;;;5071230;28;20213;-84
2021/01/08 08:55:41;;;;;;;33.43;22.17;;;2.30;99.90;;;;;;5070775;28;20201;-81
2021/01/08 08:58:10;;;;;;;45.20;22.90;;;2.40;99.90;;;;;;5071230;28;20213;-80
2021/01/08 09:00:38;;;;;;;30.47;20.27;;;2.10;99.90;;;;;;5071254;28;20221;-81
2021/01/08 09:03:22;;;;;;;43.60;26.47;;;2.30;99.90;;;;;;5070766;28;20246;-84
2021/01/08 09:05:50;;;;;;;33.63;20.60;;;2.30;99.90;;;;;;5069940;28;20207;-75
2021/01/08 09:08:21;;;;;;;27.23;20.13;;;1.60;99.90;;;;;;5070696;28;20617;-73
2021/01/08 09:10:52;;;;;;;28.43;19.00;;;1.20;99.90;;;;;;5068569;28;20254;-73
2021/01/08 09:13:24;;;;;;;29.47;19.80;;;1.40;99.90;;;;;;5069883;28;20234;-72
2021/01/08 09:16:00;;;;;;;26.50;17.77;;;1.70;99.90;;;;;;5069332;28;20301;-73
2021/01/08 09:18:42;;;;;;;26.67;18.17;;;2.80;99.90;;;;;;5070086;28;20251;-77
2021/01/08 09:21:16;;;;;;;30.27;19.43;;;3.50;99.90;;;;;;5068382;28;20210;-74
2021/01/08 09:23:45;;;;;;;28.03;19.30;;;3.60;99.90;;;;;;5069831;28;20221;-74
2021/01/08 09:26:13;;;;;;;29.50;20.17;;;4.40;99.90;;;;;;5069864;28;20681;-74
2021/01/08 09:28:40;;;;;;;25.63;17.17;;;5.60;99.90;;;;;;5061180;28;20217;-73
2021/01/08 09:31:07;;;;;;;30.63;19.13;;;4.80;99.90;;;;;;5070286;28;20202;-74
2021/01/08 09:33:34;;;;;;;22.27;16.97;;;5.80;99.90;;;;;;5070444;28;20206;-74
2021/01/08 09:36:01;;;;;;;28.90;17.63;;;7.60;99.90;;;;;;5064208;28;20210;-73
2021/01/08 09:38:30;;;;;;;22.50;16.07;;;8.40;99.90;;;;;;5069773;28;20752;-74
2021/01/08 09:40:56;;;;;;;26.87;18.20;;;8.90;99.90;;;;;;5069840;28;20231;-74
2021/01/08 09:43:23;;;;;;;20.40;15.90;;;9.40;99.90;;;;;;5069864;28;20226;-74
2021/01/08 09:46:01;;;;;;;24.70;16.20;;;9.30;99.90;;;;;;5068855;28;20297;-75
2021/01/08 09:48:28;;;;;;;20.73;14.63;;;9.10;99.90;;;;;;5060317;28;20764;-74
2021/01/08 09:51:02;;;;;;;20.83;14.83;;;8.10;99.90;;;;;;5063977;28;20585;-77
2021/01/08 09:53:28;;;;;;;21.07;16.40;;;8.30;99.90;;;;;;5073558;28;20213;-76
2021/01/08 09:56:11;;;;;;;18.53;15.53;;;8.70;99.90;;;;;;5070526;28;20206;-77
2021/01/08 09:58:37;;;;;;;21.43;17.37;;;9.20;99.90;;;;;;5065009;28;20244;-77
2021/01/08 10:01:04;;;;;;;21.33;15.87;;;10.20;99.90;;;;;;5069171;28;20207;-76
2021/01/08 10:03:30;;;;;;;23.73;17.67;;;10.20;99.90;;;;;;5066563;28;20234;-76
2021/01/08 10:06:09;;;;;;;20.23;15.80;;;10.70;99.90;;;;;;5066632;28;20229;-77
2021/01/08 10:08:36;;;;;;;20.87;16.60;;;10.80;99.90;;;;;;5065414;28;20202;-78
2021/01/08 10:11:03;;;;;;;26.37;18.67;;;10.70;99.90;;;;;;5065124;28;20203;-77
2021/01/08 10:13:30;;;;;;;28.27;18.67;;;10.70;99.90;;;;;;5072874;28;20264;-76
2021/01/08 10:15:59;;;;;;;18.90;15.23;;;10.70;99.90;;;;;;5072161;28;20214;-75
2021/01/08 10:18:28;;;;;;;18.83;15.93;;;11.30;99.90;;;;;;5073191;28;20216;-77
2021/01/08 10:20:55;;;;;;;29.70;15.20;;;11.40;99.90;;;;;;5059535;28;20210;-78
2021/01/08 10:23:24;;;;;;;22.33;17.10;;;11.00;99.90;;;;;;5062149;28;20241;-76
2021/01/08 10:25:51;;;;;;;26.77;18.00;;;11.20;99.90;;;;;;5069836;28;20242;-77
2021/01/08 10:28:21;;;;;;;24.30;17.93;;;9.60;99.90;;;;;;5072170;28;20248;-75
2021/01/08 10:30:50;;;;;;;24.27;18.23;;;8.00;99.90;;;;;;5072414;28;20301;-76
2021/01/08 10:33:16;;;;;;;23.47;16.53;;;8.30;99.90;;;;;;5071715;28;20228;-77
2021/01/08 10:35:47;;;;;;;26.53;17.63;;;9.10;99.90;;;;;;5072961;28;20209;-76
2021/01/08 10:38:13;;;;;;;20.27;15.90;;;9.40;99.90;;;;;;5064491;28;20202;-76
2021/01/08 10:40:41;;;;;;;26.23;16.97;;;9.60;99.90;;;;;;5070027;28;20216;-73
2021/01/08 10:43:07;;;;;;;22.50;15.87;;;9.90;99.90;;;;;;5071268;28;20261;-73
2021/01/08 10:45:34;;;;;;;25.40;16.67;;;11.00;99.90;;;;;;5072203;28;20288;-73
2021/01/08 10:48:00;;;;;;;20.97;16.03;;;9.70;99.90;;;;;;5072717;28;20241;-75
2021/01/08 10:50:27;;;;;;;22.87;15.73;;;9.90;99.90;;;;;;5072718;28;20582;-73
2021/01/08 10:52:53;;;;;;;20.53;15.60;;;10.80;99.90;;;;;;5072579;28;20241;-75
2021/01/08 10:55:19;;;;;;;25.90;17.47;;;10.20;99.90;;;;;;5072172;28;20233;-75
2021/01/08 10:57:47;;;;;;;23.73;16.27;;;6.20;99.90;;;;;;5072617;28;20573;-75
2021/01/08 11:00:17;;;;;;;25.33;17.37;;;3.70;99.90;;;;;;5072313;28;20737;-72
2021/01/08 11:02:43;;;;;;;30.33;19.17;;;2.90;99.90;;;;;;5067465;28;20234;-74
2021/01/08 11:05:11;;;;;;;27.07;18.30;;;2.60;99.90;;;;;;5054415;28;20207;-74
2021/01/08 11:07:38;;;;;;;29.40;18.43;;;2.30;99.90;;;;;;5066424;28;20220;-73
2021/01/08 11:10:05;;;;;;;25.97;18.17;;;2.40;99.90;;;;;;5072089;28;20229;-73
2021/01/08 11:12:33;;;;;;;24.03;16.50;;;2.50;99.90;;;;;;5068705;28;20298;-75
2021/01/08 11:15:01;;;;;;;25.83;17.83;;;2.70;99.90;;;;;;5068250;28;20267;-73
2021/01/08 11:17:28;;;;;;;31.70;19.07;;;2.80;99.90;;;;;;5071711;28;20221;-74
2021/01/08 11:19:54;;;;;;;23.93;16.67;;;2.60;99.90;;;;;;5071842;28;20218;-73
2021/01/08 11:22:21;;;;;;;29.13;16.37;;;2.70;99.90;;;;;;5059717;28;20603;-73
2021/01/08 11:24:47;;;;;;;24.67;17.27;;;3.00;99.90;;;;;;5071491;28;20277;-74
2021/01/08 11:27:14;;;;;;;24.23;17.17;;;2.90;99.90;;;;;;5064530;28;20211;-74
2021/01/08 11:29:41;;;;;;;25.27;16.40;;;2.70;99.90;;;;;;5071007;28;20212;-74
2021/01/08 11:32:09;;;;;;;24.93;14.53;;;2.80;99.90;;;;;;5067638;28;20213;-74
2021/01/08 11:34:38;;;;;;;21.20;14.53;;;2.90;99.90;;;;;;5069227;28;20209;-76
2021/01/08 11:37:05;;;;;;;40.63;23.93;;;2.80;99.90;;;;;;5072166;28;20242;-74
2021/01/08 11:39:32;;;;;;;31.23;18.13;;;2.90;99.90;;;;;;5071586;28;20220;-75
2021/01/08 11:41:58;;;;;;;24.67;16.97;;;3.20;99.90;;;;;;5071147;28;20209;-74
2021/01/08 11:44:25;;;;;;;25.57;15.37;;;3.60;99.90;;;;;;5071410;28;20210;-73
2021/01/08 11:46:52;;;;;;;23.13;16.53;;;3.90;99.90;;;;;;5066278;28;20677;-73
2021/01/08 11:49:20;;;;;;;20.83;14.07;;;3.90;99.90;;;;;;5067256;28;20206;-74
2021/01/08 11:51:47;;;;;;;24.77;15.20;;;3.70;99.90;;;;;;5070274;28;20210;-73
2021/01/08 11:54:14;;;;;;;24.20;15.03;;;3.50;99.90;;;;;;5071187;28;20284;-73
2021/01/08 11:56:40;;;;;;;21.77;13.27;;;3.40;99.90;;;;;;5064916;28;20669;-74
2021/01/08 11:59:07;;;;;;;23.87;15.00;;;3.40;99.90;;;;;;5071688;28;20578;-73
2021/01/08 12:01:33;;;;;;;19.20;12.73;;;3.20;99.90;;;;;;5071372;28;20217;-74
2021/01/08 12:04:01;;;;;;;20.77;13.53;;;3.20;99.90;;;;;;5070849;28;20664;-74
2021/01/08 12:06:30;;;;;;;20.70;13.77;;;3.30;99.90;;;;;;5071087;28;20206;-74
2021/01/08 12:08:57;;;;;;;23.70;14.47;;;3.40;99.90;;;;;;5067576;28;20214;-74
2021/01/08 12:11:24;;;;;;;20.87;14.77;;;3.40;99.90;;;;;;5068796;28;20202;-73
2021/01/08 12:13:51;;;;;;;19.53;13.93;;;3.50;99.90;;;;;;5064890;28;20214;-74
2021/01/08 12:16:25;;;;;;;19.63;13.77;;;3.40;99.90;;;;;;5070470;28;20746;-73
2021/01/08 12:18:51;;;;;;;28.30;16.97;;;3.60;99.90;;;;;;5067867;28;20283;-75
2021/01/08 12:21:18;;;;;;;16.83;12.87;;;4.00;99.90;;;;;;5071132;28;20662;-75
2021/01/08 12:23:45;;;;;;;21.70;13.57;;;4.10;99.90;;;;;;5069237;28;20261;-74
2021/01/08 12:26:16;;;;;;;21.83;13.43;;;4.10;99.90;;;;;;5070698;28;20206;-75
2021/01/08 12:28:42;;;;;;;17.07;11.87;;;4.00;99.90;;;;;;5065657;28;20210;-74
2021/01/08 12:31:09;;;;;;;17.97;11.43;;;4.20;99.90;;;;;;5070767;28;20229;-74
2021/01/08 12:33:36;;;;;;;17.43;12.40;;;4.30;99.90;;;;;;5067990;28;20213;-76
2021/01/08 12:36:03;;;;;;;20.00;12.23;;;4.30;99.90;;;;;;5070128;28;20214;-73